createdAt,value
2022-08-08T00:01:08.765Z,18.74
2022-08-08T00:03:48.224Z,18.83
2022-08-08T00:06:34.745Z,18.72
2022-08-08T00:09:11.994Z,18.64
2022-08-08T00:16:54.733Z,18.48
2022-08-08T00:19:28.088Z,18.54
2022-08-08T00:22:03.516Z,18.55
2022-08-08T00:24:36.647Z,18.51
2022-08-08T00:27:09.117Z,18.65
2022-08-08T00:29:45.181Z,18.79
2022-08-08T00:38:32.454Z,18.76
2022-08-08T00:42:08.266Z,18.64
2022-08-08T00:45:32.115Z,18.49
2022-08-08T00:48:34.060Z,18.48
2022-08-08T00:51:44.895Z,18.40
2022-08-08T01:00:04.855Z,18.43
2022-08-08T01:03:58.129Z,18.43
2022-08-08T01:06:33.655Z,18.34
2022-08-08T01:09:36.093Z,18.27
2022-08-08T01:12:53.618Z,18.14
2022-08-08T01:22:07.306Z,18.11
2022-08-08T01:25:14.380Z,18.06
2022-08-08T01:28:15.624Z,18.02
2022-08-08T01:32:06.314Z,18.02
2022-08-08T01:34:57.709Z,18.16
2022-08-08T01:43:21.891Z,18.56
2022-08-08T01:45:58.515Z,18.37
2022-08-08T01:48:48.147Z,18.28
2022-08-08T01:52:42.230Z,18.18
2022-08-08T01:55:45.513Z,18.09
2022-08-08T02:01:17.173Z,17.80
2022-08-08T02:04:04.623Z,17.75
2022-08-08T02:06:55.827Z,17.69
2022-08-08T02:10:01.705Z,17.59
2022-08-08T02:12:31.239Z,17.52
2022-08-08T02:15:34.789Z,17.36
2022-08-08T02:23:16.337Z,17.29
2022-08-08T02:25:52.309Z,17.29
2022-08-08T02:28:35.366Z,17.27
2022-08-08T02:31:43.329Z,17.22
2022-08-08T02:34:15.148Z,17.14
2022-08-08T02:37:05.551Z,17.18
2022-08-08T02:45:51.686Z,17.27
2022-08-08T02:49:08.452Z,17.23
2022-08-08T02:52:32.605Z,17.18
2022-08-08T02:55:19.965Z,17.09
2022-08-08T02:58:33.792Z,17.03
2022-08-08T03:06:34.363Z,16.95
2022-08-08T03:09:42.169Z,16.95
2022-08-08T03:13:01.175Z,16.92
2022-08-08T03:16:05.928Z,16.85
2022-08-08T03:18:45.633Z,16.80
2022-08-08T03:28:47.437Z,16.87
2022-08-08T03:32:06.790Z,16.93
2022-08-08T03:34:27.880Z,16.96
2022-08-08T03:36:55.757Z,16.92
2022-08-08T03:39:23.519Z,16.82
2022-08-08T03:42:28.188Z,16.72
2022-08-08T03:44:47.912Z,16.73
2022-08-08T03:52:20.724Z,16.95
2022-08-08T03:55:02.512Z,16.89
2022-08-08T03:58:31.630Z,17.00
2022-08-08T04:00:26.911Z,17.05
2022-08-08T04:03:06.367Z,17.11
2022-08-08T04:05:39.955Z,17.12
2022-08-08T04:10:59.957Z,17.10
2022-08-08T04:13:29.070Z,17.09
2022-08-08T04:16:18.577Z,17.12
2022-08-08T04:18:48.834Z,17.11
2022-08-08T04:21:23.305Z,17.27
2022-08-08T04:24:05.424Z,17.32
2022-08-08T04:29:37.575Z,17.52
2022-08-08T04:32:13.866Z,17.43
2022-08-08T04:34:59.736Z,17.47
2022-08-08T04:37:34.114Z,17.41
2022-08-08T04:40:12.521Z,17.41
2022-08-08T04:42:56.898Z,17.46
2022-08-08T04:50:50.310Z,17.69
2022-08-08T04:54:38.019Z,17.82
2022-08-08T04:56:12.429Z,17.91
2022-08-08T04:58:41.170Z,18.00
2022-08-08T05:01:10.729Z,18.13
2022-08-08T05:04:08.071Z,18.23
2022-08-08T05:09:16.034Z,18.49
2022-08-08T05:11:47.703Z,18.67
2022-08-08T05:14:25.729Z,18.80
2022-08-08T05:17:00.883Z,18.97
2022-08-08T05:20:11.852Z,19.18
2022-08-08T05:22:27.064Z,19.46
2022-08-08T05:27:41.577Z,19.79
2022-08-08T05:30:14.295Z,20.00
2022-08-08T05:32:46.255Z,20.20
2022-08-08T05:35:23.450Z,20.37
2022-08-08T05:37:59.008Z,20.47
2022-08-08T05:40:47.182Z,20.73
2022-08-08T05:46:08.050Z,21.22
2022-08-08T05:48:41.890Z,21.46
2022-08-08T05:51:15.737Z,21.74
2022-08-08T05:54:24.379Z,21.93
2022-08-08T05:56:47.291Z,21.96
2022-08-08T05:59:59.304Z,22.08
2022-08-08T06:05:03.025Z,22.52
2022-08-08T06:07:51.768Z,22.74
2022-08-08T06:10:31.955Z,23.03
2022-08-08T06:13:01.040Z,23.19
2022-08-08T06:15:50.688Z,23.44
2022-08-08T06:18:25.378Z,23.74
2022-08-08T06:23:53.036Z,24.02
2022-08-08T06:26:38.268Z,24.12
2022-08-08T06:29:48.862Z,24.42
2022-08-08T06:32:15.078Z,24.48
2022-08-08T06:34:56.593Z,24.70
2022-08-08T06:37:46.023Z,24.95
2022-08-08T06:45:26.547Z,25.38
2022-08-08T06:48:00.702Z,25.44
2022-08-08T06:50:33.477Z,25.53
2022-08-08T06:53:10.065Z,25.85
2022-08-08T06:56:01.970Z,26.06
2022-08-08T06:58:35.395Z,26.27
2022-08-08T07:02:16.720Z,26.38
2022-08-08T07:06:55.354Z,26.73
2022-08-08T07:09:45.621Z,26.82
2022-08-08T07:12:30.596Z,26.97
2022-08-08T07:15:04.473Z,27.14
2022-08-08T07:17:56.850Z,27.42
2022-08-08T07:20:29.793Z,27.50
2022-08-08T07:25:54.627Z,27.98
2022-08-08T07:28:31.730Z,28.22
2022-08-08T07:31:05.341Z,28.30
2022-08-08T07:33:37.957Z,28.49
2022-08-08T07:36:22.871Z,28.62
2022-08-08T07:38:53.466Z,28.76
2022-08-08T07:41:27.332Z,28.94
2022-08-08T07:49:01.385Z,29.16
2022-08-08T07:51:44.776Z,29.44
2022-08-08T07:54:31.991Z,29.57
2022-08-08T07:57:17.018Z,29.67
2022-08-08T07:59:57.850Z,29.68
2022-08-08T08:02:38.562Z,29.92
2022-08-08T08:10:17.594Z,29.85
2022-08-08T08:13:20.047Z,29.93
2022-08-08T08:16:01.452Z,29.95
2022-08-08T08:18:36.351Z,30.33
2022-08-08T08:21:13.354Z,30.49
2022-08-08T08:23:51.084Z,30.74
2022-08-08T08:29:42.390Z,30.65
2022-08-08T08:32:14.156Z,30.75
2022-08-08T08:35:03.472Z,30.63
2022-08-08T08:37:32.669Z,30.95
2022-08-08T08:40:04.606Z,31.21
2022-08-08T08:42:38.942Z,31.31
2022-08-08T08:48:07.744Z,31.12
2022-08-08T08:50:40.878Z,31.13
2022-08-08T08:53:26.916Z,31.21
2022-08-08T08:56:10.573Z,31.03
2022-08-08T08:58:46.974Z,30.99
2022-08-08T09:01:33.375Z,30.96
2022-08-08T09:06:50.418Z,30.82
2022-08-08T09:09:37.514Z,31.07
2022-08-08T09:12:19.947Z,31.52
2022-08-08T09:14:51.699Z,31.74
2022-08-08T09:17:40.694Z,31.84
2022-08-08T09:22:01.009Z,32.09
2022-08-08T09:26:21.574Z,32.66
2022-08-08T09:28:52.515Z,32.87
2022-08-08T09:31:42.600Z,32.69
2022-08-08T09:34:34.557Z,32.71
2022-08-08T09:37:28.825Z,32.76
2022-08-08T09:40:11.185Z,32.72
2022-08-08T09:48:04.091Z,32.72
2022-08-08T09:50:32.479Z,32.79
2022-08-08T09:53:14.427Z,32.81
2022-08-08T09:56:04.313Z,33.00
2022-08-08T09:58:41.454Z,32.89
2022-08-08T10:01:15.436Z,32.76
2022-08-08T10:10:00.672Z,33.17
2022-08-08T10:12:38.760Z,33.22
2022-08-08T10:15:22.406Z,33.18
2022-08-08T10:18:07.502Z,32.88
2022-08-08T10:20:50.975Z,33.11
2022-08-08T10:23:42.000Z,32.85
2022-08-08T10:31:46.876Z,33.01
2022-08-08T10:34:19.516Z,33.07
2022-08-08T10:36:50.271Z,33.34
2022-08-08T10:39:19.683Z,33.26
2022-08-08T10:41:58.772Z,33.12
2022-08-08T10:44:42.915Z,33.60
2022-08-08T10:50:06.184Z,34.01
2022-08-08T10:52:37.330Z,34.16
2022-08-08T10:55:08.025Z,34.21
2022-08-08T10:57:45.509Z,34.21
2022-08-08T11:00:23.383Z,33.85
2022-08-08T11:02:54.739Z,33.43
2022-08-08T11:08:53.250Z,33.78
2022-08-08T11:12:00.174Z,34.10
2022-08-08T11:14:12.210Z,34.08
2022-08-08T11:16:46.905Z,34.14
2022-08-08T11:19:17.284Z,34.37
2022-08-08T11:21:54.234Z,33.83
2022-08-08T11:24:27.161Z,34.00
2022-08-08T11:31:57.407Z,33.81
2022-08-08T11:34:34.369Z,33.78
2022-08-08T11:37:14.845Z,33.90
2022-08-08T11:39:43.993Z,33.62
2022-08-08T11:42:26.930Z,33.28
2022-08-08T11:44:58.919Z,33.38
2022-08-08T11:54:38.274Z,33.21
2022-08-08T11:57:27.206Z,33.91
2022-08-08T12:00:01.081Z,34.29
2022-08-08T12:02:51.762Z,34.70
2022-08-08T12:05:22.932Z,34.19
2022-08-08T12:07:53.908Z,33.33
2022-08-08T12:10:27.105Z,33.06
2022-08-08T12:17:53.892Z,34.61
2022-08-08T12:20:23.287Z,34.93
2022-08-08T12:22:52.528Z,34.77
2022-08-08T12:25:29.778Z,35.49
2022-08-08T12:28:15.790Z,36.38
2022-08-08T12:30:49.956Z,36.46
2022-08-08T12:36:12.058Z,36.90
2022-08-08T12:38:48.562Z,36.96
2022-08-08T12:41:33.855Z,37.23
2022-08-08T12:44:08.645Z,37.28
2022-08-08T12:46:36.491Z,38.01
2022-08-08T12:49:25.213Z,37.96
2022-08-08T12:52:00.348Z,37.83
2022-08-08T12:58:19.689Z,38.43
2022-08-08T13:00:51.687Z,38.59
2022-08-08T13:03:27.236Z,37.99
2022-08-08T13:06:10.461Z,37.25
2022-08-08T13:08:53.467Z,37.89
2022-08-08T13:11:28.716Z,37.83
2022-08-08T13:17:53.899Z,37.58
2022-08-08T13:20:32.308Z,37.92
2022-08-08T13:23:30.098Z,38.07
2022-08-08T13:25:58.824Z,38.68
2022-08-08T13:28:32.293Z,38.94
2022-08-08T13:31:01.901Z,39.56
2022-08-08T13:33:41.938Z,39.24
2022-08-08T13:40:45.127Z,36.16
2022-08-08T13:43:13.937Z,37.08
2022-08-08T13:45:47.488Z,36.95
2022-08-08T13:48:16.752Z,37.26
2022-08-08T13:50:49.273Z,36.94
2022-08-08T13:53:27.524Z,37.97
2022-08-08T13:59:13.044Z,38.97
2022-08-08T14:01:52.850Z,39.18
2022-08-08T14:04:25.349Z,38.90
2022-08-08T14:07:04.452Z,38.33
2022-08-08T14:10:02.412Z,37.58
2022-08-08T14:12:28.043Z,37.26
2022-08-08T14:20:06.782Z,35.84
2022-08-08T14:22:38.383Z,35.36
2022-08-08T14:25:15.441Z,34.64
2022-08-08T14:28:00.057Z,33.98
2022-08-08T14:30:34.606Z,33.84
2022-08-08T14:33:11.123Z,33.50
2022-08-08T14:40:48.370Z,32.03
2022-08-08T14:44:02.094Z,32.04
2022-08-08T14:46:14.810Z,32.15
2022-08-08T14:48:57.298Z,32.62
2022-08-08T14:51:47.008Z,32.99
2022-08-08T14:54:16.211Z,33.03
2022-08-08T15:03:01.756Z,32.05
2022-08-08T15:05:42.917Z,31.72
2022-08-08T15:08:22.233Z,31.47
2022-08-08T15:11:01.849Z,31.43
2022-08-08T15:13:39.920Z,31.32
2022-08-08T15:16:19.885Z,31.20
2022-08-08T15:23:50.851Z,30.93
2022-08-08T15:26:19.844Z,30.88
2022-08-08T15:28:53.050Z,30.77
2022-08-08T15:31:57.667Z,30.72
2022-08-08T15:34:29.148Z,30.71
2022-08-08T15:36:58.268Z,30.68
2022-08-08T15:39:31.631Z,30.58
2022-08-08T15:46:35.074Z,30.44
2022-08-08T15:49:04.348Z,30.33
2022-08-08T15:51:33.656Z,30.33
2022-08-08T15:54:03.616Z,30.32
2022-08-08T15:56:31.709Z,30.28
2022-08-08T15:59:01.119Z,30.23
2022-08-08T16:01:40.656Z,30.31
2022-08-08T16:06:52.707Z,30.28
2022-08-08T16:13:10.988Z,30.23
2022-08-08T16:13:11.834Z,30.31
2022-08-08T16:14:56.689Z,30.14
2022-08-08T16:17:57.735Z,30.05
2022-08-08T16:20:13.849Z,30.01
2022-08-08T16:25:20.200Z,29.87
2022-08-08T16:27:57.834Z,29.85
2022-08-08T16:30:36.354Z,29.74
2022-08-08T16:33:04.654Z,29.77
2022-08-08T16:35:33.521Z,29.75
2022-08-08T16:38:00.961Z,29.70
2022-08-08T16:40:29.648Z,29.62
2022-08-08T16:47:46.114Z,29.59
2022-08-08T16:50:16.350Z,29.53
2022-08-08T16:55:18.393Z,29.50
2022-08-08T16:55:54.002Z,29.42
2022-08-08T16:58:26.370Z,29.35
2022-08-08T17:00:57.838Z,29.36
2022-08-08T17:03:59.779Z,29.15
2022-08-08T17:08:53.962Z,29.04
2022-08-08T17:11:21.552Z,28.98
2022-08-08T17:14:01.480Z,29.03
2022-08-08T17:16:29.758Z,28.86
2022-08-08T17:19:00.672Z,28.86
2022-08-08T17:21:37.405Z,28.83
2022-08-08T17:24:26.959Z,28.77
2022-08-08T17:29:36.468Z,28.60
2022-08-08T17:32:11.394Z,28.57
2022-08-08T17:35:00.208Z,28.54
2022-08-08T17:37:32.732Z,28.41
2022-08-08T17:40:05.654Z,28.24
2022-08-08T17:42:46.749Z,28.16
2022-08-08T17:48:32.081Z,28.05
2022-08-08T17:51:00.559Z,27.95
2022-08-08T17:53:31.238Z,27.98
2022-08-08T17:56:11.225Z,27.85
2022-08-08T17:58:39.946Z,27.84
2022-08-08T18:01:10.160Z,27.76
2022-08-08T18:03:38.733Z,27.66
2022-08-08T18:10:48.645Z,27.42
2022-08-08T18:13:17.917Z,27.44
2022-08-08T18:15:45.521Z,27.42
2022-08-08T18:18:31.680Z,27.14
2022-08-08T18:21:00.719Z,27.14
2022-08-08T18:23:38.065Z,26.91
2022-08-08T18:26:08.601Z,26.93
2022-08-08T18:34:11.508Z,26.66
2022-08-08T18:36:24.937Z,26.60
2022-08-08T18:38:53.186Z,26.59
2022-08-08T18:41:51.130Z,26.55
2022-08-08T18:44:12.740Z,26.52
2022-08-08T18:46:55.024Z,26.55
2022-08-08T18:52:04.364Z,26.29
2022-08-08T18:54:33.021Z,26.17
2022-08-08T18:57:01.730Z,26.13
2022-08-08T18:59:34.746Z,26.02
2022-08-08T19:02:26.167Z,25.96
2022-08-08T19:04:56.910Z,25.91
2022-08-08T19:10:14.398Z,25.53
2022-08-08T19:12:44.650Z,25.54
2022-08-08T19:15:23.662Z,25.44
2022-08-08T19:18:32.308Z,25.15
2022-08-08T19:20:42.907Z,25.02
2022-08-08T19:23:14.271Z,24.66
2022-08-08T19:26:20.163Z,24.01
2022-08-08T19:31:18.189Z,23.41
2022-08-08T19:34:05.082Z,23.35
2022-08-08T19:36:37.947Z,23.09
2022-08-08T19:39:06.111Z,23.10
2022-08-08T19:41:37.239Z,22.88
2022-08-08T19:44:13.192Z,22.67
2022-08-08T19:51:57.554Z,22.00
2022-08-08T19:54:26.235Z,21.90
2022-08-08T19:56:53.757Z,21.86
2022-08-08T19:59:22.625Z,21.81
2022-08-08T20:02:03.399Z,21.66
2022-08-08T20:04:33.057Z,21.67
2022-08-08T20:07:05.194Z,21.67
2022-08-08T20:14:13.002Z,21.70
2022-08-08T20:16:57.133Z,21.83
2022-08-08T20:19:34.323Z,21.88
2022-08-08T20:22:04.769Z,21.87
2022-08-08T20:24:32.845Z,21.85
2022-08-08T20:27:04.605Z,21.80
2022-08-08T20:29:45.670Z,21.81
2022-08-08T20:37:21.729Z,21.97
2022-08-08T20:39:51.188Z,21.68
2022-08-08T20:42:28.668Z,21.43
2022-08-08T20:44:58.102Z,21.27
2022-08-08T20:47:26.086Z,21.15
2022-08-08T20:49:57.726Z,21.17
2022-08-08T20:52:28.696Z,21.21
2022-08-08T21:00:00.376Z,21.06
2022-08-08T21:02:28.213Z,21.20
2022-08-08T21:04:57.202Z,21.19
2022-08-08T21:07:47.481Z,20.98
2022-08-08T21:10:13.380Z,20.99
2022-08-08T21:12:44.259Z,20.86
2022-08-08T21:15:16.578Z,20.72
2022-08-08T21:20:49.125Z,20.43
2022-08-08T21:23:18.523Z,20.45
2022-08-08T21:25:53.205Z,20.33
2022-08-08T21:28:35.747Z,20.31
2022-08-08T21:31:05.854Z,20.18
2022-08-08T21:33:49.961Z,20.18
2022-08-08T21:36:21.071Z,20.21
2022-08-08T21:43:56.468Z,20.31
2022-08-08T21:48:05.918Z,20.39
2022-08-08T21:49:13.449Z,20.55
2022-08-08T21:54:23.308Z,20.65
2022-08-08T21:55:01.928Z,20.65
2022-08-08T21:57:20.277Z,20.61
2022-08-08T22:00:03.764Z,20.60
2022-08-08T22:07:48.478Z,20.60
2022-08-08T22:10:28.755Z,20.56
2022-08-08T22:13:18.648Z,20.45
2022-08-08T22:15:59.136Z,20.50
2022-08-08T22:18:30.053Z,20.72
2022-08-08T22:20:59.005Z,20.64
2022-08-08T22:23:34.159Z,20.63
2022-08-08T22:31:01.564Z,20.49
2022-08-08T22:34:12.751Z,20.43
2022-08-08T22:36:16.713Z,20.42
2022-08-08T22:38:59.761Z,20.25
2022-08-08T22:41:27.271Z,20.01
2022-08-08T22:44:01.865Z,19.84
2022-08-08T22:46:34.358Z,19.76
2022-08-08T22:54:32.637Z,19.63
2022-08-08T22:56:57.536Z,19.58
2022-08-08T22:59:25.082Z,19.67
2022-08-08T23:02:02.260Z,19.67
2022-08-08T23:04:33.632Z,19.68
2022-08-08T23:07:02.973Z,19.62
2022-08-08T23:09:39.366Z,19.66
2022-08-08T23:17:23.227Z,19.48
2022-08-08T23:19:57.708Z,19.39
2022-08-08T23:22:25.245Z,19.33
2022-08-08T23:24:52.748Z,19.28
2022-08-08T23:27:46.148Z,19.14
2022-08-08T23:30:09.341Z,19.08
2022-08-08T23:32:44.054Z,19.06
2022-08-08T23:40:16.793Z,19.15
2022-08-08T23:42:49.873Z,19.16
2022-08-08T23:45:19.242Z,19.12
2022-08-08T23:49:05.805Z,19.14
2022-08-08T23:50:57.471Z,19.15
2022-08-08T23:54:04.837Z,19.18
